Terminal Aerodrome Forecast
Issued by NWS

Home | Current Version | Previous Version | Graphics & Text | Print | Product List | Glossary On
Versions: 1 2 3 4 5 6 7 8 9 10 11 12 13 14 15
000
FTUS43 KMPX 172300
TAFAXN
TAF
KAXN 172338Z 1800/1824 VRB02KT P6SM SCT100
     FM180600 12006KT P6SM BKN090
     FM181500 13017G24KT P6SM SCT040 BKN090=

USA.gov is the U.S. government's official web portal to all federal, state and local government web resources and services.